sensor_id;sensor_type;location;lat;lon;timestamp;P1;durP1;ratioP1;P2;durP2;ratioP2
7657;SDS011;8462;53.156;8.220;2023-12-22T00:00:46;13.13;;;2.27;;
7657;SDS011;8462;53.156;8.220;2023-12-22T00:03:14;6.17;;;1.93;;
7657;SDS011;8462;53.156;8.220;2023-12-22T00:05:42;6.70;;;2.70;;
7657;SDS011;8462;53.156;8.220;2023-12-22T00:08:09;9.77;;;2.33;;
7657;SDS011;8462;53.156;8.220;2023-12-22T00:10:36;10.00;;;2.33;;
7657;SDS011;8462;53.156;8.220;2023-12-22T00:13:03;10.13;;;2.53;;
7657;SDS011;8462;53.156;8.220;2023-12-22T00:15:33;5.13;;;1.93;;
7657;SDS011;8462;53.156;8.220;2023-12-22T00:18:00;5.47;;;1.47;;
7657;SDS011;8462;53.156;8.220;2023-12-22T00:20:27;5.83;;;1.67;;
7657;SDS011;8462;53.156;8.220;2023-12-22T00:22:56;7.27;;;1.90;;
7657;SDS011;8462;53.156;8.220;2023-12-22T00:25:23;6.17;;;2.03;;
7657;SDS011;8462;53.156;8.220;2023-12-22T00:27:50;7.73;;;2.17;;
7657;SDS011;8462;53.156;8.220;2023-12-22T00:30:17;5.70;;;1.73;;
7657;SDS011;8462;53.156;8.220;2023-12-22T00:32:44;6.10;;;1.77;;
7657;SDS011;8462;53.156;8.220;2023-12-22T00:35:11;8.60;;;2.37;;
7657;SDS011;8462;53.156;8.220;2023-12-22T00:37:38;10.73;;;1.80;;
7657;SDS011;8462;53.156;8.220;2023-12-22T00:40:07;6.33;;;1.63;;
7657;SDS011;8462;53.156;8.220;2023-12-22T00:42:35;10.37;;;1.90;;
7657;SDS011;8462;53.156;8.220;2023-12-22T00:45:02;7.50;;;1.83;;
7657;SDS011;8462;53.156;8.220;2023-12-22T00:47:29;6.03;;;1.93;;
7657;SDS011;8462;53.156;8.220;2023-12-22T00:49:57;13.20;;;2.90;;
7657;SDS011;8462;53.156;8.220;2023-12-22T00:52:24;7.03;;;2.03;;
7657;SDS011;8462;53.156;8.220;2023-12-22T00:54:52;13.03;;;3.33;;
7657;SDS011;8462;53.156;8.220;2023-12-22T00:57:22;13.80;;;3.00;;
7657;SDS011;8462;53.156;8.220;2023-12-22T00:59:49;12.10;;;2.90;;
7657;SDS011;8462;53.156;8.220;2023-12-22T01:02:16;9.10;;;2.90;;
7657;SDS011;8462;53.156;8.220;2023-12-22T01:04:45;11.70;;;3.43;;
7657;SDS011;8462;53.156;8.220;2023-12-22T01:07:12;9.93;;;2.60;;
7657;SDS011;8462;53.156;8.220;2023-12-22T01:09:39;10.67;;;3.00;;
7657;SDS011;8462;53.156;8.220;2023-12-22T01:12:06;10.93;;;3.40;;
7657;SDS011;8462;53.156;8.220;2023-12-22T01:14:37;12.23;;;3.50;;
7657;SDS011;8462;53.156;8.220;2023-12-22T01:17:04;12.57;;;2.73;;
7657;SDS011;8462;53.156;8.220;2023-12-22T01:19:31;14.77;;;3.67;;
7657;SDS011;8462;53.156;8.220;2023-12-22T01:21:57;11.03;;;2.50;;
7657;SDS011;8462;53.156;8.220;2023-12-22T01:24:24;9.27;;;2.30;;
7657;SDS011;8462;53.156;8.220;2023-12-22T01:26:51;3.13;;;1.30;;
7657;SDS011;8462;53.156;8.220;2023-12-22T01:29:18;7.77;;;1.63;;
7657;SDS011;8462;53.156;8.220;2023-12-22T01:31:47;14.40;;;2.80;;
7657;SDS011;8462;53.156;8.220;2023-12-22T01:34:14;10.67;;;2.70;;
7657;SDS011;8462;53.156;8.220;2023-12-22T01:36:41;8.63;;;2.27;;
7657;SDS011;8462;53.156;8.220;2023-12-22T01:39:08;10.07;;;3.20;;
7657;SDS011;8462;53.156;8.220;2023-12-22T01:41:35;12.73;;;2.93;;
7657;SDS011;8462;53.156;8.220;2023-12-22T01:44:02;12.83;;;2.73;;
7657;SDS011;8462;53.156;8.220;2023-12-22T01:46:29;11.77;;;3.37;;
7657;SDS011;8462;53.156;8.220;2023-12-22T01:48:58;5.53;;;1.87;;
7657;SDS011;8462;53.156;8.220;2023-12-22T01:51:26;8.03;;;1.90;;
7657;SDS011;8462;53.156;8.220;2023-12-22T01:53:53;13.07;;;2.63;;
7657;SDS011;8462;53.156;8.220;2023-12-22T01:56:20;10.20;;;2.27;;
7657;SDS011;8462;53.156;8.220;2023-12-22T01:58:47;6.97;;;2.10;;
7657;SDS011;8462;53.156;8.220;2023-12-22T02:01:18;9.10;;;2.23;;
7657;SDS011;8462;53.156;8.220;2023-12-22T02:03:46;11.37;;;2.60;;
7657;SDS011;8462;53.156;8.220;2023-12-22T02:06:18;12.57;;;3.20;;
7657;SDS011;8462;53.156;8.220;2023-12-22T02:08:46;12.47;;;2.93;;
7657;SDS011;8462;53.156;8.220;2023-12-22T02:11:13;10.13;;;2.60;;
7657;SDS011;8462;53.156;8.220;2023-12-22T02:13:41;7.67;;;2.47;;
7657;SDS011;8462;53.156;8.220;2023-12-22T02:16:22;12.67;;;2.73;;
7657;SDS011;8462;53.156;8.220;2023-12-22T02:18:55;8.10;;;2.03;;
7657;SDS011;8462;53.156;8.220;2023-12-22T02:21:26;14.90;;;2.77;;
7657;SDS011;8462;53.156;8.220;2023-12-22T02:23:54;9.87;;;2.80;;
7657;SDS011;8462;53.156;8.220;2023-12-22T02:26:25;6.30;;;2.40;;
7657;SDS011;8462;53.156;8.220;2023-12-22T02:28:59;7.13;;;2.07;;
7657;SDS011;8462;53.156;8.220;2023-12-22T02:31:30;8.90;;;2.53;;
7657;SDS011;8462;53.156;8.220;2023-12-22T02:34:03;11.27;;;2.30;;
7657;SDS011;8462;53.156;8.220;2023-12-22T02:36:34;10.23;;;2.20;;
7657;SDS011;8462;53.156;8.220;2023-12-22T02:39:06;11.30;;;2.87;;
7657;SDS011;8462;53.156;8.220;2023-12-22T02:41:36;9.33;;;2.27;;
7657;SDS011;8462;53.156;8.220;2023-12-22T02:44:03;11.83;;;2.70;;
7657;SDS011;8462;53.156;8.220;2023-12-22T02:46:30;9.27;;;2.63;;
7657;SDS011;8462;53.156;8.220;2023-12-22T02:48:57;12.30;;;1.93;;
7657;SDS011;8462;53.156;8.220;2023-12-22T02:51:25;11.07;;;2.40;;
7657;SDS011;8462;53.156;8.220;2023-12-22T02:53:53;8.20;;;2.90;;
7657;SDS011;8462;53.156;8.220;2023-12-22T02:56:21;11.80;;;2.50;;
7657;SDS011;8462;53.156;8.220;2023-12-22T02:58:49;10.93;;;2.63;;
7657;SDS011;8462;53.156;8.220;2023-12-22T03:01:16;5.23;;;2.43;;
7657;SDS011;8462;53.156;8.220;2023-12-22T03:03:43;8.07;;;2.37;;
7657;SDS011;8462;53.156;8.220;2023-12-22T03:06:16;10.50;;;2.53;;
7657;SDS011;8462;53.156;8.220;2023-12-22T03:08:43;11.57;;;3.00;;
7657;SDS011;8462;53.156;8.220;2023-12-22T03:11:10;12.30;;;3.10;;
7657;SDS011;8462;53.156;8.220;2023-12-22T03:13:39;10.37;;;3.33;;
7657;SDS011;8462;53.156;8.220;2023-12-22T03:16:07;12.53;;;3.67;;
7657;SDS011;8462;53.156;8.220;2023-12-22T03:18:34;7.90;;;2.27;;
7657;SDS011;8462;53.156;8.220;2023-12-22T03:21:03;7.67;;;2.70;;
7657;SDS011;8462;53.156;8.220;2023-12-22T03:23:30;8.00;;;1.90;;
7657;SDS011;8462;53.156;8.220;2023-12-22T03:25:57;9.33;;;2.43;;
7657;SDS011;8462;53.156;8.220;2023-12-22T03:28:25;6.63;;;1.83;;
7657;SDS011;8462;53.156;8.220;2023-12-22T03:30:53;11.03;;;2.50;;
7657;SDS011;8462;53.156;8.220;2023-12-22T03:33:20;10.97;;;2.47;;
7657;SDS011;8462;53.156;8.220;2023-12-22T03:35:47;9.73;;;2.20;;
7657;SDS011;8462;53.156;8.220;2023-12-22T03:38:14;10.90;;;2.10;;
7657;SDS011;8462;53.156;8.220;2023-12-22T03:40:43;7.17;;;2.07;;
7657;SDS011;8462;53.156;8.220;2023-12-22T03:43:10;6.10;;;1.93;;
7657;SDS011;8462;53.156;8.220;2023-12-22T03:45:38;10.33;;;2.83;;
7657;SDS011;8462;53.156;8.220;2023-12-22T03:48:07;9.70;;;2.30;;
7657;SDS011;8462;53.156;8.220;2023-12-22T03:50:34;9.43;;;2.40;;
7657;SDS011;8462;53.156;8.220;2023-12-22T03:52:59;12.90;;;2.77;;
7657;SDS011;8462;53.156;8.220;2023-12-22T03:55:26;14.27;;;3.17;;
7657;SDS011;8462;53.156;8.220;2023-12-22T03:57:53;13.67;;;2.73;;
7657;SDS011;8462;53.156;8.220;2023-12-22T04:00:20;12.57;;;3.07;;
7657;SDS011;8462;53.156;8.220;2023-12-22T04:02:48;16.53;;;3.97;;
7657;SDS011;8462;53.156;8.220;2023-12-22T04:05:16;16.40;;;3.77;;
7657;SDS011;8462;53.156;8.220;2023-12-22T04:07:43;12.60;;;3.50;;
7657;SDS011;8462;53.156;8.220;2023-12-22T04:10:10;13.13;;;3.37;;
7657;SDS011;8462;53.156;8.220;2023-12-22T04:12:37;14.10;;;3.80;;
7657;SDS011;8462;53.156;8.220;2023-12-22T04:15:04;17.37;;;3.97;;
7657;SDS011;8462;53.156;8.220;2023-12-22T04:17:32;23.37;;;4.80;;
7657;SDS011;8462;53.156;8.220;2023-12-22T04:19:59;20.57;;;4.30;;
7657;SDS011;8462;53.156;8.220;2023-12-22T04:22:28;15.63;;;4.17;;
7657;SDS011;8462;53.156;8.220;2023-12-22T04:24:54;20.67;;;3.43;;
7657;SDS011;8462;53.156;8.220;2023-12-22T04:27:21;15.30;;;3.27;;
7657;SDS011;8462;53.156;8.220;2023-12-22T04:29:48;14.73;;;3.80;;
7657;SDS011;8462;53.156;8.220;2023-12-22T04:32:15;12.27;;;3.30;;
7657;SDS011;8462;53.156;8.220;2023-12-22T04:34:42;12.43;;;3.73;;
7657;SDS011;8462;53.156;8.220;2023-12-22T04:37:09;12.10;;;3.50;;
7657;SDS011;8462;53.156;8.220;2023-12-22T04:39:37;8.30;;;2.80;;
7657;SDS011;8462;53.156;8.220;2023-12-22T04:42:04;12.17;;;2.63;;
7657;SDS011;8462;53.156;8.220;2023-12-22T04:44:32;11.60;;;3.33;;
7657;SDS011;8462;53.156;8.220;2023-12-22T04:46:59;8.23;;;2.90;;
7657;SDS011;8462;53.156;8.220;2023-12-22T04:49:26;11.47;;;2.60;;
7657;SDS011;8462;53.156;8.220;2023-12-22T04:51:53;13.23;;;3.57;;
7657;SDS011;8462;53.156;8.220;2023-12-22T04:54:20;14.97;;;3.40;;
7657;SDS011;8462;53.156;8.220;2023-12-22T04:56:49;11.70;;;3.37;;
7657;SDS011;8462;53.156;8.220;2023-12-22T04:59:16;10.77;;;2.90;;
7657;SDS011;8462;53.156;8.220;2023-12-22T05:01:43;12.37;;;4.03;;
7657;SDS011;8462;53.156;8.220;2023-12-22T05:04:10;12.67;;;2.97;;
7657;SDS011;8462;53.156;8.220;2023-12-22T05:06:37;8.77;;;2.90;;
7657;SDS011;8462;53.156;8.220;2023-12-22T05:09:05;4.43;;;2.07;;
7657;SDS011;8462;53.156;8.220;2023-12-22T05:11:32;4.37;;;1.50;;
7657;SDS011;8462;53.156;8.220;2023-12-22T05:14:00;6.20;;;1.63;;
7657;SDS011;8462;53.156;8.220;2023-12-22T05:16:27;4.40;;;1.93;;
7657;SDS011;8462;53.156;8.220;2023-12-22T05:18:56;5.43;;;1.90;;
7657;SDS011;8462;53.156;8.220;2023-12-22T05:21:23;6.87;;;1.37;;
7657;SDS011;8462;53.156;8.220;2023-12-22T05:23:50;7.50;;;2.07;;
7657;SDS011;8462;53.156;8.220;2023-12-22T05:26:18;5.20;;;1.43;;
7657;SDS011;8462;53.156;8.220;2023-12-22T05:28:45;6.27;;;1.30;;
7657;SDS011;8462;53.156;8.220;2023-12-22T05:31:16;4.97;;;1.77;;
7657;SDS011;8462;53.156;8.220;2023-12-22T05:33:44;5.87;;;1.73;;
7657;SDS011;8462;53.156;8.220;2023-12-22T05:36:11;7.80;;;1.83;;
7657;SDS011;8462;53.156;8.220;2023-12-22T05:38:40;3.30;;;1.27;;
7657;SDS011;8462;53.156;8.220;2023-12-22T05:41:07;6.87;;;1.70;;
7657;SDS011;8462;53.156;8.220;2023-12-22T05:43:34;3.90;;;1.53;;
7657;SDS011;8462;53.156;8.220;2023-12-22T05:46:01;8.77;;;2.10;;
7657;SDS011;8462;53.156;8.220;2023-12-22T05:48:29;8.40;;;2.50;;
7657;SDS011;8462;53.156;8.220;2023-12-22T05:50:56;7.77;;;1.90;;
7657;SDS011;8462;53.156;8.220;2023-12-22T05:53:23;8.87;;;2.00;;
7657;SDS011;8462;53.156;8.220;2023-12-22T05:55:51;8.00;;;2.53;;
7657;SDS011;8462;53.156;8.220;2023-12-22T05:58:18;13.70;;;4.07;;
7657;SDS011;8462;53.156;8.220;2023-12-22T06:00:45;10.33;;;2.90;;
7657;SDS011;8462;53.156;8.220;2023-12-22T06:03:12;12.30;;;3.40;;
7657;SDS011;8462;53.156;8.220;2023-12-22T06:05:41;12.27;;;3.17;;
7657;SDS011;8462;53.156;8.220;2023-12-22T06:08:08;9.67;;;3.03;;
7657;SDS011;8462;53.156;8.220;2023-12-22T06:10:35;10.87;;;3.23;;
7657;SDS011;8462;53.156;8.220;2023-12-22T06:13:02;12.13;;;3.23;;
7657;SDS011;8462;53.156;8.220;2023-12-22T06:15:30;10.63;;;3.30;;
7657;SDS011;8462;53.156;8.220;2023-12-22T06:17:57;9.37;;;3.20;;
7657;SDS011;8462;53.156;8.220;2023-12-22T06:20:24;15.87;;;3.90;;
7657;SDS011;8462;53.156;8.220;2023-12-22T06:22:53;14.33;;;3.87;;
7657;SDS011;8462;53.156;8.220;2023-12-22T06:25:22;15.50;;;3.50;;
7657;SDS011;8462;53.156;8.220;2023-12-22T06:27:49;17.77;;;3.83;;
7657;SDS011;8462;53.156;8.220;2023-12-22T06:30:16;14.17;;;3.50;;
7657;SDS011;8462;53.156;8.220;2023-12-22T06:32:43;18.10;;;4.70;;
7657;SDS011;8462;53.156;8.220;2023-12-22T06:35:10;14.17;;;3.63;;
7657;SDS011;8462;53.156;8.220;2023-12-22T06:37:39;17.03;;;4.20;;
7657;SDS011;8462;53.156;8.220;2023-12-22T06:40:08;18.40;;;4.37;;
7657;SDS011;8462;53.156;8.220;2023-12-22T06:42:35;14.73;;;4.23;;
7657;SDS011;8462;53.156;8.220;2023-12-22T06:45:03;16.93;;;4.03;;
7657;SDS011;8462;53.156;8.220;2023-12-22T06:47:31;18.07;;;4.83;;
7657;SDS011;8462;53.156;8.220;2023-12-22T06:49:59;17.30;;;3.97;;
7657;SDS011;8462;53.156;8.220;2023-12-22T06:52:26;18.30;;;4.70;;
7657;SDS011;8462;53.156;8.220;2023-12-22T06:54:53;16.27;;;4.47;;
7657;SDS011;8462;53.156;8.220;2023-12-22T06:57:22;17.87;;;4.80;;
7657;SDS011;8462;53.156;8.220;2023-12-22T06:59:49;15.93;;;3.63;;
7657;SDS011;8462;53.156;8.220;2023-12-22T07:02:16;19.93;;;5.30;;
7657;SDS011;8462;53.156;8.220;2023-12-22T07:05:00;22.07;;;4.33;;
7657;SDS011;8462;53.156;8.220;2023-12-22T07:07:33;14.30;;;3.93;;
7657;SDS011;8462;53.156;8.220;2023-12-22T07:10:00;20.70;;;3.57;;
7657;SDS011;8462;53.156;8.220;2023-12-22T07:12:29;20.57;;;4.83;;
7657;SDS011;8462;53.156;8.220;2023-12-22T07:14:55;20.57;;;4.57;;
7657;SDS011;8462;53.156;8.220;2023-12-22T07:17:22;17.47;;;4.60;;
7657;SDS011;8462;53.156;8.220;2023-12-22T07:19:51;14.07;;;3.43;;
7657;SDS011;8462;53.156;8.220;2023-12-22T07:22:20;9.43;;;3.40;;
7657;SDS011;8462;53.156;8.220;2023-12-22T07:24:47;9.00;;;3.33;;
7657;SDS011;8462;53.156;8.220;2023-12-22T07:27:16;11.43;;;3.53;;
7657;SDS011;8462;53.156;8.220;2023-12-22T07:29:45;13.27;;;3.13;;
7657;SDS011;8462;53.156;8.220;2023-12-22T07:32:13;14.20;;;2.97;;
7657;SDS011;8462;53.156;8.220;2023-12-22T07:34:40;10.80;;;2.97;;
7657;SDS011;8462;53.156;8.220;2023-12-22T07:37:06;18.53;;;4.07;;
7657;SDS011;8462;53.156;8.220;2023-12-22T07:39:34;19.00;;;3.77;;
7657;SDS011;8462;53.156;8.220;2023-12-22T07:42:01;14.23;;;3.40;;
7657;SDS011;8462;53.156;8.220;2023-12-22T07:44:28;12.50;;;4.07;;
7657;SDS011;8462;53.156;8.220;2023-12-22T07:46:57;21.10;;;5.17;;
7657;SDS011;8462;53.156;8.220;2023-12-22T07:49:26;16.43;;;3.90;;
7657;SDS011;8462;53.156;8.220;2023-12-22T07:51:53;15.93;;;4.70;;
7657;SDS011;8462;53.156;8.220;2023-12-22T07:54:20;19.10;;;4.90;;
7657;SDS011;8462;53.156;8.220;2023-12-22T07:56:47;14.10;;;4.07;;
7657;SDS011;8462;53.156;8.220;2023-12-22T07:59:14;11.97;;;4.37;;
7657;SDS011;8462;53.156;8.220;2023-12-22T08:01:41;17.83;;;4.10;;
7657;SDS011;8462;53.156;8.220;2023-12-22T08:04:09;15.90;;;4.27;;
7657;SDS011;8462;53.156;8.220;2023-12-22T08:06:36;12.63;;;3.63;;
7657;SDS011;8462;53.156;8.220;2023-12-22T08:09:03;12.27;;;3.87;;
7657;SDS011;8462;53.156;8.220;2023-12-22T08:11:31;23.23;;;4.57;;
7657;SDS011;8462;53.156;8.220;2023-12-22T08:13:58;15.67;;;4.30;;
7657;SDS011;8462;53.156;8.220;2023-12-22T08:16:25;14.37;;;3.80;;
7657;SDS011;8462;53.156;8.220;2023-12-22T08:18:52;17.07;;;3.50;;
7657;SDS011;8462;53.156;8.220;2023-12-22T08:21:20;13.80;;;4.23;;
7657;SDS011;8462;53.156;8.220;2023-12-22T08:23:47;10.33;;;4.60;;
7657;SDS011;8462;53.156;8.220;2023-12-22T08:26:14;19.07;;;4.20;;
7657;SDS011;8462;53.156;8.220;2023-12-22T08:28:44;11.90;;;4.07;;
7657;SDS011;8462;53.156;8.220;2023-12-22T08:31:11;10.83;;;3.27;;
7657;SDS011;8462;53.156;8.220;2023-12-22T08:33:38;10.93;;;2.93;;
7657;SDS011;8462;53.156;8.220;2023-12-22T08:36:08;14.97;;;3.50;;
7657;SDS011;8462;53.156;8.220;2023-12-22T08:38:37;11.83;;;3.30;;
7657;SDS011;8462;53.156;8.220;2023-12-22T08:41:06;11.73;;;3.77;;
7657;SDS011;8462;53.156;8.220;2023-12-22T08:43:33;15.50;;;3.70;;
7657;SDS011;8462;53.156;8.220;2023-12-22T08:46:00;19.27;;;3.80;;
7657;SDS011;8462;53.156;8.220;2023-12-22T08:48:27;15.40;;;4.33;;
7657;SDS011;8462;53.156;8.220;2023-12-22T08:50:54;10.70;;;3.10;;
7657;SDS011;8462;53.156;8.220;2023-12-22T08:53:21;10.03;;;2.53;;
7657;SDS011;8462;53.156;8.220;2023-12-22T08:55:50;12.63;;;3.67;;
7657;SDS011;8462;53.156;8.220;2023-12-22T08:58:17;9.87;;;2.33;;
7657;SDS011;8462;53.156;8.220;2023-12-22T09:00:44;10.83;;;2.53;;
7657;SDS011;8462;53.156;8.220;2023-12-22T09:03:11;10.73;;;2.67;;
7657;SDS011;8462;53.156;8.220;2023-12-22T09:05:38;9.27;;;3.20;;
7657;SDS011;8462;53.156;8.220;2023-12-22T09:08:05;11.70;;;2.83;;
7657;SDS011;8462;53.156;8.220;2023-12-22T09:10:32;12.07;;;3.17;;
7657;SDS011;8462;53.156;8.220;2023-12-22T09:13:03;11.30;;;2.77;;
7657;SDS011;8462;53.156;8.220;2023-12-22T09:15:30;9.63;;;2.57;;
7657;SDS011;8462;53.156;8.220;2023-12-22T09:17:58;9.87;;;3.00;;
7657;SDS011;8462;53.156;8.220;2023-12-22T09:20:25;9.27;;;2.33;;
7657;SDS011;8462;53.156;8.220;2023-12-22T09:22:54;7.47;;;1.90;;
7657;SDS011;8462;53.156;8.220;2023-12-22T09:25:22;5.10;;;1.90;;
7657;SDS011;8462;53.156;8.220;2023-12-22T09:27:51;7.50;;;1.97;;
7657;SDS011;8462;53.156;8.220;2023-12-22T09:30:19;7.17;;;2.33;;
7657;SDS011;8462;53.156;8.220;2023-12-22T09:32:46;8.50;;;2.40;;
7657;SDS011;8462;53.156;8.220;2023-12-22T09:35:14;8.27;;;2.27;;
7657;SDS011;8462;53.156;8.220;2023-12-22T09:37:42;8.97;;;2.83;;
7657;SDS011;8462;53.156;8.220;2023-12-22T09:40:09;9.93;;;2.37;;
7657;SDS011;8462;53.156;8.220;2023-12-22T09:42:37;14.23;;;3.00;;
7657;SDS011;8462;53.156;8.220;2023-12-22T09:45:08;13.43;;;2.83;;
7657;SDS011;8462;53.156;8.220;2023-12-22T09:47:39;11.20;;;2.70;;
7657;SDS011;8462;53.156;8.220;2023-12-22T09:50:09;12.60;;;3.27;;
7657;SDS011;8462;53.156;8.220;2023-12-22T09:52:36;13.27;;;3.00;;
7657;SDS011;8462;53.156;8.220;2023-12-22T09:55:06;12.33;;;3.87;;
7657;SDS011;8462;53.156;8.220;2023-12-22T09:57:35;15.33;;;3.87;;
7657;SDS011;8462;53.156;8.220;2023-12-22T10:00:03;19.27;;;3.70;;
7657;SDS011;8462;53.156;8.220;2023-12-22T10:02:33;16.10;;;3.87;;
7657;SDS011;8462;53.156;8.220;2023-12-22T10:05:01;10.00;;;3.90;;
7657;SDS011;8462;53.156;8.220;2023-12-22T10:07:30;12.13;;;3.67;;
7657;SDS011;8462;53.156;8.220;2023-12-22T10:09:58;10.43;;;3.83;;
7657;SDS011;8462;53.156;8.220;2023-12-22T10:12:28;11.00;;;3.70;;
7657;SDS011;8462;53.156;8.220;2023-12-22T10:14:58;10.37;;;3.37;;
7657;SDS011;8462;53.156;8.220;2023-12-22T10:17:26;16.00;;;3.70;;
7657;SDS011;8462;53.156;8.220;2023-12-22T10:19:55;11.93;;;4.20;;
7657;SDS011;8462;53.156;8.220;2023-12-22T10:22:24;9.37;;;3.27;;
7657;SDS011;8462;53.156;8.220;2023-12-22T10:24:52;9.27;;;3.30;;
7657;SDS011;8462;53.156;8.220;2023-12-22T10:27:19;12.33;;;3.63;;
7657;SDS011;8462;53.156;8.220;2023-12-22T10:29:48;11.93;;;3.13;;
7657;SDS011;8462;53.156;8.220;2023-12-22T10:32:17;15.80;;;3.67;;
7657;SDS011;8462;53.156;8.220;2023-12-22T10:34:44;8.87;;;2.73;;
7657;SDS011;8462;53.156;8.220;2023-12-22T10:37:11;10.63;;;3.73;;
7657;SDS011;8462;53.156;8.220;2023-12-22T10:39:40;12.80;;;3.87;;
7657;SDS011;8462;53.156;8.220;2023-12-22T10:42:07;14.20;;;3.60;;
7657;SDS011;8462;53.156;8.220;2023-12-22T10:44:36;9.83;;;3.73;;
7657;SDS011;8462;53.156;8.220;2023-12-22T10:47:07;12.20;;;3.50;;
7657;SDS011;8462;53.156;8.220;2023-12-22T10:49:35;10.73;;;3.13;;
7657;SDS011;8462;53.156;8.220;2023-12-22T10:52:03;13.53;;;3.37;;
7657;SDS011;8462;53.156;8.220;2023-12-22T10:54:30;10.87;;;2.80;;
7657;SDS011;8462;53.156;8.220;2023-12-22T10:56:59;13.20;;;3.13;;
7657;SDS011;8462;53.156;8.220;2023-12-22T10:59:27;15.90;;;3.93;;
7657;SDS011;8462;53.156;8.220;2023-12-22T11:01:56;12.70;;;3.80;;
7657;SDS011;8462;53.156;8.220;2023-12-22T11:04:25;9.67;;;4.03;;
7657;SDS011;8462;53.156;8.220;2023-12-22T11:06:57;12.43;;;3.43;;
7657;SDS011;8462;53.156;8.220;2023-12-22T11:09:24;9.43;;;3.63;;
7657;SDS011;8462;53.156;8.220;2023-12-22T11:11:55;14.57;;;4.47;;
7657;SDS011;8462;53.156;8.220;2023-12-22T11:14:24;17.87;;;5.10;;
7657;SDS011;8462;53.156;8.220;2023-12-22T11:16:53;18.60;;;5.27;;
7657;SDS011;8462;53.156;8.220;2023-12-22T11:19:21;11.13;;;3.80;;
7657;SDS011;8462;53.156;8.220;2023-12-22T11:21:52;13.40;;;3.87;;
7657;SDS011;8462;53.156;8.220;2023-12-22T11:24:22;13.90;;;3.87;;
7657;SDS011;8462;53.156;8.220;2023-12-22T11:26:52;17.30;;;4.53;;
7657;SDS011;8462;53.156;8.220;2023-12-22T11:29:20;12.60;;;3.47;;
7657;SDS011;8462;53.156;8.220;2023-12-22T11:31:52;9.37;;;3.17;;
7657;SDS011;8462;53.156;8.220;2023-12-22T11:34:21;16.43;;;3.67;;
7657;SDS011;8462;53.156;8.220;2023-12-22T11:36:50;11.33;;;4.20;;
7657;SDS011;8462;53.156;8.220;2023-12-22T11:39:20;9.40;;;2.43;;
7657;SDS011;8462;53.156;8.220;2023-12-22T11:41:47;11.07;;;2.70;;
7657;SDS011;8462;53.156;8.220;2023-12-22T11:44:17;11.40;;;2.60;;
7657;SDS011;8462;53.156;8.220;2023-12-22T11:46:46;15.27;;;3.47;;
7657;SDS011;8462;53.156;8.220;2023-12-22T11:49:13;10.27;;;2.60;;
7657;SDS011;8462;53.156;8.220;2023-12-22T11:51:41;8.27;;;2.80;;
7657;SDS011;8462;53.156;8.220;2023-12-22T11:57:16;11.13;;;2.57;;
7657;SDS011;8462;53.156;8.220;2023-12-22T12:00:03;10.67;;;2.20;;
7657;SDS011;8462;53.156;8.220;2023-12-22T12:02:40;13.70;;;2.53;;
7657;SDS011;8462;53.156;8.220;2023-12-22T12:05:07;7.93;;;2.37;;
7657;SDS011;8462;53.156;8.220;2023-12-22T12:07:39;6.53;;;2.60;;
7657;SDS011;8462;53.156;8.220;2023-12-22T12:10:09;10.30;;;2.87;;
7657;SDS011;8462;53.156;8.220;2023-12-22T12:12:39;9.03;;;2.73;;
7657;SDS011;8462;53.156;8.220;2023-12-22T12:15:07;10.03;;;2.53;;
7657;SDS011;8462;53.156;8.220;2023-12-22T12:17:37;8.47;;;2.33;;
7657;SDS011;8462;53.156;8.220;2023-12-22T12:20:07;14.60;;;2.93;;
7657;SDS011;8462;53.156;8.220;2023-12-22T12:22:37;9.97;;;2.47;;
7657;SDS011;8462;53.156;8.220;2023-12-22T12:25:09;6.87;;;2.20;;
7657;SDS011;8462;53.156;8.220;2023-12-22T12:27:37;9.43;;;2.77;;
7657;SDS011;8462;53.156;8.220;2023-12-22T12:30:11;10.57;;;3.00;;
7657;SDS011;8462;53.156;8.220;2023-12-22T12:32:43;9.40;;;2.80;;
7657;SDS011;8462;53.156;8.220;2023-12-22T12:35:14;8.70;;;2.63;;
7657;SDS011;8462;53.156;8.220;2023-12-22T12:37:41;8.00;;;2.60;;
7657;SDS011;8462;53.156;8.220;2023-12-22T12:40:11;10.97;;;2.67;;
7657;SDS011;8462;53.156;8.220;2023-12-22T12:42:38;6.27;;;2.30;;
7657;SDS011;8462;53.156;8.220;2023-12-22T12:45:06;12.00;;;2.77;;
7657;SDS011;8462;53.156;8.220;2023-12-22T12:47:34;5.63;;;1.97;;
7657;SDS011;8462;53.156;8.220;2023-12-22T12:50:03;12.43;;;2.40;;
7657;SDS011;8462;53.156;8.220;2023-12-22T12:52:30;10.93;;;2.47;;
7657;SDS011;8462;53.156;8.220;2023-12-22T12:54:59;7.23;;;2.07;;
7657;SDS011;8462;53.156;8.220;2023-12-22T12:57:26;8.83;;;3.63;;
7657;SDS011;8462;53.156;8.220;2023-12-22T12:59:53;9.43;;;3.63;;
7657;SDS011;8462;53.156;8.220;2023-12-22T13:02:20;7.87;;;3.27;;
7657;SDS011;8462;53.156;8.220;2023-12-22T13:04:49;10.57;;;2.57;;
7657;SDS011;8462;53.156;8.220;2023-12-22T13:07:26;10.23;;;2.57;;
7657;SDS011;8462;53.156;8.220;2023-12-22T13:09:53;8.20;;;2.70;;
7657;SDS011;8462;53.156;8.220;2023-12-22T13:12:22;8.83;;;2.60;;
7657;SDS011;8462;53.156;8.220;2023-12-22T13:14:50;9.80;;;3.30;;
7657;SDS011;8462;53.156;8.220;2023-12-22T13:17:18;7.53;;;2.00;;
7657;SDS011;8462;53.156;8.220;2023-12-22T13:19:45;9.47;;;2.70;;
7657;SDS011;8462;53.156;8.220;2023-12-22T13:22:12;7.53;;;2.20;;
7657;SDS011;8462;53.156;8.220;2023-12-22T13:24:41;17.37;;;2.60;;
7657;SDS011;8462;53.156;8.220;2023-12-22T13:27:20;13.63;;;2.67;;
7657;SDS011;8462;53.156;8.220;2023-12-22T13:29:47;7.57;;;2.67;;
7657;SDS011;8462;53.156;8.220;2023-12-22T13:32:19;9.60;;;2.80;;
7657;SDS011;8462;53.156;8.220;2023-12-22T13:34:49;10.23;;;2.30;;
7657;SDS011;8462;53.156;8.220;2023-12-22T13:37:17;5.83;;;2.00;;
7657;SDS011;8462;53.156;8.220;2023-12-22T13:39:46;13.40;;;2.50;;
7657;SDS011;8462;53.156;8.220;2023-12-22T13:42:14;10.33;;;2.33;;
7657;SDS011;8462;53.156;8.220;2023-12-22T13:44:43;10.73;;;2.60;;
7657;SDS011;8462;53.156;8.220;2023-12-22T13:47:14;10.53;;;2.97;;
7657;SDS011;8462;53.156;8.220;2023-12-22T13:49:42;7.77;;;2.73;;
7657;SDS011;8462;53.156;8.220;2023-12-22T13:52:24;11.77;;;2.73;;
7657;SDS011;8462;53.156;8.220;2023-12-22T13:54:53;9.40;;;2.30;;
7657;SDS011;8462;53.156;8.220;2023-12-22T13:57:23;6.63;;;2.33;;
7657;SDS011;8462;53.156;8.220;2023-12-22T13:59:50;9.13;;;2.10;;
7657;SDS011;8462;53.156;8.220;2023-12-22T14:02:22;12.27;;;3.07;;
7657;SDS011;8462;53.156;8.220;2023-12-22T14:04:49;5.63;;;2.00;;
7657;SDS011;8462;53.156;8.220;2023-12-22T14:07:16;7.80;;;2.40;;
7657;SDS011;8462;53.156;8.220;2023-12-22T14:09:43;8.43;;;2.30;;
7657;SDS011;8462;53.156;8.220;2023-12-22T14:12:12;12.60;;;2.70;;
7657;SDS011;8462;53.156;8.220;2023-12-22T14:14:39;6.37;;;2.10;;
7657;SDS011;8462;53.156;8.220;2023-12-22T14:17:07;6.50;;;2.67;;
7657;SDS011;8462;53.156;8.220;2023-12-22T14:19:34;8.37;;;2.30;;
7657;SDS011;8462;53.156;8.220;2023-12-22T14:22:01;5.73;;;1.67;;
7657;SDS011;8462;53.156;8.220;2023-12-22T14:24:30;11.53;;;2.10;;
7657;SDS011;8462;53.156;8.220;2023-12-22T14:26:57;7.77;;;1.90;;
7657;SDS011;8462;53.156;8.220;2023-12-22T14:29:26;9.37;;;2.33;;
7657;SDS011;8462;53.156;8.220;2023-12-22T14:31:53;6.73;;;1.53;;
7657;SDS011;8462;53.156;8.220;2023-12-22T14:34:20;6.33;;;1.93;;
7657;SDS011;8462;53.156;8.220;2023-12-22T14:36:47;5.00;;;2.10;;
7657;SDS011;8462;53.156;8.220;2023-12-22T14:39:17;5.47;;;1.77;;
7657;SDS011;8462;53.156;8.220;2023-12-22T14:41:47;5.53;;;1.60;;
7657;SDS011;8462;53.156;8.220;2023-12-22T14:44:14;3.77;;;1.10;;
7657;SDS011;8462;53.156;8.220;2023-12-22T14:46:42;3.60;;;1.80;;
7657;SDS011;8462;53.156;8.220;2023-12-22T14:49:10;5.03;;;1.70;;
7657;SDS011;8462;53.156;8.220;2023-12-22T14:51:38;1.20;;;1.00;;
7657;SDS011;8462;53.156;8.220;2023-12-22T14:54:05;3.33;;;1.43;;
7657;SDS011;8462;53.156;8.220;2023-12-22T14:56:33;2.50;;;1.20;;
7657;SDS011;8462;53.156;8.220;2023-12-22T14:59:00;3.17;;;1.10;;
7657;SDS011;8462;53.156;8.220;2023-12-22T15:01:27;6.03;;;1.33;;
7657;SDS011;8462;53.156;8.220;2023-12-22T15:03:59;1.80;;;0.90;;
7657;SDS011;8462;53.156;8.220;2023-12-22T15:06:28;3.13;;;1.00;;
7657;SDS011;8462;53.156;8.220;2023-12-22T15:08:55;5.40;;;1.80;;
7657;SDS011;8462;53.156;8.220;2023-12-22T15:11:28;3.93;;;1.20;;
7657;SDS011;8462;53.156;8.220;2023-12-22T15:13:55;5.13;;;1.97;;
7657;SDS011;8462;53.156;8.220;2023-12-22T15:16:23;3.10;;;1.00;;